Time;durP1;ratioP1;P1;durP2;ratioP2;P2;SDS_P1;SDS_P2;PMS_P1;PMS_P2;Temp;Humidity;BMP_temperature;BMP_pressure;BME280_temperature;BME280_humidity;BME280_pressure;Samples;Min_cycle;Max_cycle;Signal;HPM_P1;HPM_P2
2023/05/06 00:00:13;;;;;;;16.15;11.90;;;;;;;10.85;100.00;101617.66;4963453;28;20026;-91
2023/05/06 00:02:39;;;;;;;17.35;11.90;;;;;;;10.85;100.00;101613.28;4964603;28;20476;-92
2023/05/06 00:05:05;;;;;;;18.20;13.02;;;;;;;10.87;100.00;101619.31;4965320;28;20058;-91
2023/05/06 00:07:30;;;;;;;18.98;12.73;;;;;;;10.86;100.00;101617.59;4964528;28;21023;-91
2023/05/06 00:09:55;;;;;;;16.77;12.35;;;;;;;10.84;100.00;101609.00;4962305;28;20018;-91
2023/05/06 00:12:21;;;;;;;16.77;12.05;;;;;;;10.81;100.00;101608.16;4963302;28;20035;-91
2023/05/06 00:14:46;;;;;;;15.82;11.20;;;;;;;10.78;100.00;101603.88;4964228;28;20031;-92
2023/05/06 00:17:11;;;;;;;15.77;11.40;;;;;;;10.78;100.00;101600.44;4964557;28;20035;-91
2023/05/06 00:19:37;;;;;;;15.45;11.35;;;;;;;10.73;100.00;101594.44;4964120;28;20027;-91
2023/05/06 00:22:02;;;;;;;18.30;12.40;;;;;;;10.74;100.00;101604.78;4964414;28;20026;-91
2023/05/06 00:24:28;;;;;;;17.40;11.80;;;;;;;10.68;100.00;101597.94;4962106;28;20106;-92
2023/05/06 00:26:53;;;;;;;16.98;12.25;;;;;;;10.68;100.00;101591.91;4963838;28;20022;-91
2023/05/06 00:29:18;;;;;;;18.40;12.73;;;;;;;10.67;100.00;101591.03;4964177;28;20035;-92
2023/05/06 00:31:44;;;;;;;17.42;11.68;;;;;;;10.68;100.00;101590.19;4963949;28;20042;-91
2023/05/06 00:34:10;;;;;;;17.10;11.52;;;;;;;10.66;100.00;101593.66;4962535;28;20026;-91
2023/05/06 00:36:36;;;;;;;18.08;11.95;;;;;;;10.60;100.00;101591.13;4964470;28;20027;-91
2023/05/06 00:39:02;;;;;;;16.48;11.85;;;;;;;10.57;100.00;101598.97;4961816;28;20033;-91
2023/05/06 00:41:33;;;;;;;14.88;11.02;;;;;;;10.49;100.00;101596.47;4962965;28;20031;-91
2023/05/06 00:43:59;;;;;;;15.40;10.68;;;;;;;10.47;100.00;101599.94;4978915;28;20118;-92
2023/05/06 00:46:24;;;;;;;14.95;11.00;;;;;;;10.40;100.00;101596.56;4965014;28;20105;-91
2023/05/06 00:48:50;;;;;;;19.00;11.02;;;;;;;10.32;100.00;101595.75;4964153;28;20058;-92
2023/05/06 00:51:16;;;;;;;16.02;10.98;;;;;;;10.27;100.00;101590.66;4963262;28;20064;-92
2023/05/06 00:53:45;;;;;;;15.23;10.95;;;;;;;10.22;100.00;101592.44;4960914;28;20074;-91
2023/05/06 00:56:11;;;;;;;15.18;10.88;;;;;;;10.18;100.00;101595.91;4963185;28;20491;-91
2023/05/06 00:58:37;;;;;;;16.95;10.95;;;;;;;10.15;100.00;101588.16;4964849;28;20114;-92
2023/05/06 01:01:02;;;;;;;15.68;11.40;;;;;;;10.10;100.00;101592.50;4962400;28;20119;-91
2023/05/06 01:03:28;;;;;;;15.98;11.10;;;;;;;10.10;100.00;101591.66;4960913;28;20026;-91
2023/05/06 01:06:03;;;;;;;16.50;10.95;;;;;;;10.05;100.00;101589.09;4964086;28;20049;-91
2023/05/06 01:08:38;;;;;;;16.52;11.13;;;;;;;10.01;100.00;101586.56;4963347;28;20114;-91
2023/05/06 01:11:13;;;;;;;16.42;11.80;;;;;;;9.97;100.00;101590.91;4963279;28;20023;-91
2023/05/06 01:13:49;;;;;;;16.27;11.52;;;;;;;9.91;100.00;101585.78;4965605;28;20387;-92
2023/05/06 01:16:18;;;;;;;17.10;11.57;;;;;;;9.89;100.00;101588.38;4967404;28;20035;-91
2023/05/06 01:18:44;;;;;;;18.15;11.55;;;;;;;9.85;100.00;101591.00;4966068;28;20111;-92
2023/05/06 01:21:11;;;;;;;17.20;11.68;;;;;;;9.83;100.00;101591.03;4966058;28;20185;-90
2023/05/06 01:23:54;;;;;;;16.08;11.23;;;;;;;9.79;100.00;101586.75;4965250;28;20061;-91
2023/05/06 01:26:20;;;;;;;17.75;11.27;;;;;;;9.73;100.00;101583.34;4967233;28;20026;-91
2023/05/06 01:28:45;;;;;;;17.33;11.63;;;;;;;9.73;100.00;101585.94;4979982;28;20353;-91
2023/05/06 01:31:16;;;;;;;17.40;11.45;;;;;;;9.70;100.00;101585.97;4965806;28;20037;-91
2023/05/06 01:33:49;;;;;;;17.15;11.35;;;;;;;9.69;100.00;101589.44;4965629;28;20542;-91
2023/05/06 01:36:27;;;;;;;17.23;11.25;;;;;;;9.65;100.00;101583.41;4965067;28;20649;-91
2023/05/06 01:39:11;;;;;;;16.33;11.27;;;;;;;9.67;100.00;101584.28;4981772;28;20023;-91
2023/05/06 01:41:39;;;;;;;15.50;11.37;;;;;;;9.61;100.00;101573.97;4965156;28;20089;-91
2023/05/06 01:44:06;;;;;;;16.90;11.18;;;;;;;9.62;100.00;101577.41;4966776;28;20033;-91
2023/05/06 01:46:31;;;;;;;16.33;11.35;;;;;;;9.59;100.00;101574.84;4966650;28;20090;-91
2023/05/06 01:49:00;;;;;;;16.45;11.45;;;;;;;9.58;100.00;101579.16;4965385;28;20082;-85
2023/05/06 01:51:25;;;;;;;18.55;11.68;;;;;;;9.59;100.00;101585.19;4964883;28;20536;-85
2023/05/06 01:53:50;;;;;;;16.42;11.50;;;;;;;9.53;100.00;101580.94;4965808;28;20054;-85
2023/05/06 01:56:16;;;;;;;17.10;11.20;;;;;;;9.55;100.00;101588.69;4981449;28;20027;-85
2023/05/06 01:58:41;;;;;;;16.45;10.23;;;;;;;9.48;100.00;101587.88;4965753;28;20018;-85
2023/05/06 02:01:07;;;;;;;15.73;10.88;;;;;;;9.45;100.00;101585.28;4960374;28;20045;-84
2023/05/06 02:03:32;;;;;;;14.20;9.93;;;;;;;9.45;100.00;101591.34;4966899;28;20423;-85
2023/05/06 02:05:57;;;;;;;15.23;11.13;;;;;;;9.43;100.00;101590.47;4965436;28;20034;-85
2023/05/06 02:08:23;;;;;;;15.52;10.77;;;;;;;9.39;100.00;101595.69;4965424;28;20023;-85
2023/05/06 02:10:49;;;;;;;16.17;10.77;;;;;;;9.37;100.00;101595.69;4963353;28;20026;-85
2023/05/06 02:13:17;;;;;;;15.85;10.43;;;;;;;9.36;100.00;101601.75;4965407;28;20033;-85
2023/05/06 02:15:42;;;;;;;14.88;10.15;;;;;;;9.36;100.00;101606.06;4965700;28;20035;-85
2023/05/06 02:18:07;;;;;;;14.77;10.77;;;;;;;9.29;100.00;101602.66;4964973;28;20066;-84
2023/05/06 02:20:33;;;;;;;15.02;10.48;;;;;;;9.31;100.00;101613.00;4965189;28;20463;-91
2023/05/06 02:22:58;;;;;;;15.25;10.75;;;;;;;9.28;100.00;101602.69;4964305;28;20042;-91
2023/05/06 02:25:23;;;;;;;18.10;10.77;;;;;;;9.25;100.00;101602.69;4963603;28;20043;-91
2023/05/06 02:27:48;;;;;;;15.83;10.67;;;;;;;9.21;100.00;101603.59;4965769;28;20348;-91
2023/05/06 02:30:14;;;;;;;14.85;10.80;;;;;;;9.20;100.00;101607.91;4963643;28;20651;-91
2023/05/06 02:32:40;;;;;;;14.70;10.75;;;;;;;9.17;100.00;101613.06;4979836;28;20483;-91
2023/05/06 02:35:06;;;;;;;15.77;10.77;;;;;;;9.13;100.00;101601.03;4964599;28;20034;-90
2023/05/06 02:37:31;;;;;;;14.73;10.07;;;;;;;9.13;100.00;101607.94;4964326;28;20089;-91
2023/05/06 02:39:57;;;;;;;16.08;10.73;;;;;;;9.06;100.00;101589.00;4965979;28;20058;-91
2023/05/06 02:42:22;;;;;;;16.17;11.05;;;;;;;9.05;100.00;101602.78;4965549;28;20465;-91
2023/05/06 02:44:47;;;;;;;16.75;10.80;;;;;;;8.93;100.00;101575.28;4962857;28;20055;-91
2023/05/06 02:47:13;;;;;;;15.82;10.75;;;;;;;9.02;100.00;101595.91;4963932;28;20076;-92
2023/05/06 02:49:38;;;;;;;16.75;10.98;;;;;;;9.00;100.00;101602.84;4964753;28;20032;-85
2023/05/06 02:52:04;;;;;;;17.97;10.83;;;;;;;9.01;100.00;101590.72;4965022;28;20046;-85
2023/05/06 02:54:29;;;;;;;15.15;10.00;;;;;;;8.99;100.00;101588.19;4964469;28;20289;-85
2023/05/06 02:56:54;;;;;;;15.40;10.65;;;;;;;9.00;100.00;101594.22;4964643;28;20034;-85
2023/05/06 02:59:20;;;;;;;14.63;9.65;;;;;;;8.97;100.00;101591.63;4962101;28;20021;-84
2023/05/06 03:01:46;;;;;;;15.65;9.93;;;;;;;8.96;100.00;101595.06;4962756;28;20121;-85
2023/05/06 03:04:11;;;;;;;14.40;9.88;;;;;;;8.90;100.00;101590.81;4961508;28;20256;-85
2023/05/06 03:06:37;;;;;;;15.18;9.57;;;;;;;8.92;100.00;101595.97;4965372;28;20038;-85
2023/05/06 03:09:03;;;;;;;14.05;9.43;;;;;;;8.90;100.00;101592.53;4963698;28;20038;-85
2023/05/06 03:11:30;;;;;;;13.73;9.65;;;;;;;8.86;100.00;101593.41;4961921;28;20031;-85
2023/05/06 03:13:56;;;;;;;16.55;9.93;;;;;;;8.86;100.00;101590.84;4963653;28;21540;-85
2023/05/06 03:16:21;;;;;;;15.93;10.63;;;;;;;8.84;100.00;101580.50;4962613;28;20034;-84
2023/05/06 03:18:46;;;;;;;16.40;11.00;;;;;;;8.83;100.00;101583.06;4960690;28;20026;-91
2023/05/06 03:21:12;;;;;;;15.05;10.55;;;;;;;8.81;100.00;101583.06;4964592;28;20293;-91
2023/05/06 03:23:37;;;;;;;15.02;10.55;;;;;;;8.77;100.00;101591.72;4965366;28;20058;-91
2023/05/06 03:26:03;;;;;;;15.03;10.30;;;;;;;8.75;100.00;101579.66;4965003;28;20612;-90
2023/05/06 03:28:28;;;;;;;15.70;10.23;;;;;;;8.74;100.00;101586.56;4976762;28;20305;-91
2023/05/06 03:30:53;;;;;;;17.88;11.07;;;;;;;8.72;100.00;101585.72;4960929;28;20054;-92
2023/05/06 03:33:19;;;;;;;15.95;10.55;;;;;;;8.70;100.00;101593.47;4962313;28;20037;-92
2023/05/06 03:35:44;;;;;;;15.63;10.27;;;;;;;8.67;100.00;101585.72;4960482;28;20034;-91
2023/05/06 03:38:10;;;;;;;17.08;11.32;;;;;;;8.69;100.00;101586.59;4963065;28;20034;-91
2023/05/06 03:40:35;;;;;;;17.70;11.05;;;;;;;8.67;100.00;101582.28;4961116;28;20507;-91
2023/05/06 03:43:00;;;;;;;16.75;11.43;;;;;;;8.64;100.00;101583.16;4960028;28;20037;-91
2023/05/06 03:45:26;;;;;;;17.55;11.10;;;;;;;8.66;100.00;101586.63;4961728;28;20117;-92
2023/05/06 03:47:51;;;;;;;16.45;10.52;;;;;;;8.65;100.00;101586.63;4963632;28;20217;-91
2023/05/06 03:50:16;;;;;;;16.55;10.85;;;;;;;8.62;100.00;101581.44;4977071;28;20027;-91
2023/05/06 03:52:42;;;;;;;18.47;11.57;;;;;;;8.61;100.00;101575.41;4964371;28;20050;-92
2023/05/06 03:55:08;;;;;;;16.73;10.73;;;;;;;8.59;100.00;101574.59;4964791;28;21122;-91
2023/05/06 03:57:33;;;;;;;17.48;11.18;;;;;;;8.58;100.00;101572.84;4965012;28;20496;-92
2023/05/06 03:59:58;;;;;;;20.13;11.70;;;;;;;8.62;100.00;101578.84;4963965;28;20033;-91
2023/05/06 04:02:24;;;;;;;17.05;10.98;;;;;;;8.60;100.00;101578.00;4962197;28;20321;-91
2023/05/06 04:04:49;;;;;;;16.10;10.50;;;;;;;8.61;100.00;101584.88;4964915;28;20054;-91
2023/05/06 04:07:14;;;;;;;17.02;10.98;;;;;;;8.61;100.00;101588.34;4960601;28;20035;-91
2023/05/06 04:09:40;;;;;;;16.50;11.20;;;;;;;8.58;100.00;101585.78;4961748;28;20022;-91
2023/05/06 04:12:05;;;;;;;17.77;10.95;;;;;;;8.60;100.00;101594.38;4962437;28;20038;-91
2023/05/06 04:14:31;;;;;;;16.60;11.07;;;;;;;8.55;100.00;101588.34;4960342;28;20637;-91
2023/05/06 04:16:56;;;;;;;16.75;11.32;;;;;;;8.61;100.00;101596.09;4961480;28;21355;-91
2023/05/06 04:19:22;;;;;;;17.15;11.25;;;;;;;8.61;100.00;101593.50;4962926;28;20038;-92
2023/05/06 04:21:47;;;;;;;18.60;11.90;;;;;;;8.60;100.00;101598.66;4961609;28;20062;-92
2023/05/06 04:24:14;;;;;;;18.83;11.55;;;;;;;8.64;100.00;101598.66;4960870;28;20521;-91
2023/05/06 04:26:40;;;;;;;18.98;12.50;;;;;;;8.65;100.00;101597.81;4960661;28;20695;-90
2023/05/06 04:29:06;;;;;;;17.40;11.73;;;;;;;8.67;100.00;101603.81;4962518;28;20031;-92
2023/05/06 04:31:33;;;;;;;18.25;11.80;;;;;;;8.68;100.00;101605.53;4958236;28;20034;-92
2023/05/06 04:33:59;;;;;;;16.23;11.30;;;;;;;8.73;100.00;101610.72;4965673;28;20421;-93
2023/05/06 04:36:24;;;;;;;21.23;12.88;;;;;;;8.79;100.00;101612.41;4971205;28;20511;-93
2023/05/06 04:39:07;;;;;;;17.38;11.73;;;;;;;8.72;100.00;101585.72;4959752;28;20031;-89
2023/05/06 04:42:20;;;;;;;17.90;12.10;;;;;;;8.89;100.00;101608.91;4952378;28;20041;-89
2023/05/06 04:44:45;;;;;;;18.58;12.50;;;;;;;8.81;100.00;101585.66;4953115;28;20030;-85
2023/05/06 04:47:11;;;;;;;18.48;12.25;;;;;;;8.96;100.00;101605.41;4959375;28;20130;-85
2023/05/06 04:49:36;;;;;;;19.75;12.60;;;;;;;8.99;100.00;101608.88;4962887;28;20041;-85
2023/05/06 04:52:02;;;;;;;19.70;12.80;;;;;;;9.09;100.00;101607.94;4956483;28;20051;-85
2023/05/06 04:54:27;;;;;;;19.05;12.95;;;;;;;9.17;100.00;101607.91;4958871;28;20097;-85
2023/05/06 04:56:53;;;;;;;20.50;13.40;;;;;;;9.35;100.00;101610.34;4966942;28;20041;-85
2023/05/06 04:59:18;;;;;;;21.73;13.88;;;;;;;9.46;100.00;101610.31;4960228;28;20455;-90
2023/05/06 05:01:43;;;;;;;22.25;13.85;;;;;;;9.57;100.00;101605.91;4959333;28;20030;-91
2023/05/06 05:04:11;;;;;;;21.00;13.88;;;;;;;9.73;100.00;101615.28;4961254;28;20333;-90
2023/05/06 05:06:36;;;;;;;21.65;14.50;;;;;;;9.89;100.00;101618.63;4959380;28;20062;-91
2023/05/06 05:09:02;;;;;;;22.92;14.65;;;;;;;10.03;100.00;101616.72;4963445;28;20124;-91
2023/05/06 05:11:27;;;;;;;23.40;15.07;;;;;;;10.19;100.00;101625.25;4965434;28;20664;-92
2023/05/06 05:13:53;;;;;;;23.33;15.63;;;;;;;10.29;100.00;101627.78;4968116;28;20032;-92
2023/05/06 05:16:18;;;;;;;23.38;15.43;;;;;;;10.42;100.00;101627.63;4968022;28;20070;-91
2023/05/06 05:18:43;;;;;;;21.95;15.38;;;;;;;10.52;100.00;101624.06;4967681;28;20511;-91
2023/05/06 05:21:09;;;;;;;23.85;15.38;;;;;;;10.62;100.00;101626.53;4964356;28;20121;-93
2023/05/06 05:23:35;;;;;;;27.73;16.10;;;;;;;10.69;100.00;101625.59;4966979;28;20037;-92
2023/05/06 05:26:03;;;;;;;23.95;15.75;;;;;;;10.81;100.00;101629.78;4962975;28;20034;-91
2023/05/06 05:28:28;;;;;;;25.38;16.10;;;;;;;10.89;100.00;101637.47;4962234;28;20039;-93
2023/05/06 05:30:53;;;;;;;27.60;16.10;;;;;;;10.94;100.00;101643.44;4962914;28;20033;-92
2023/05/06 05:33:19;;;;;;;27.70;15.75;;;;;;;11.00;100.00;101635.59;4982439;28;20027;-92
2023/05/06 05:35:44;;;;;;;26.73;16.77;;;;;;;11.13;100.00;101641.47;4966430;28;20408;-92
2023/05/06 05:38:11;;;;;;;25.10;16.52;;;;;;;11.26;100.00;101641.28;4964249;28;20038;-93
2023/05/06 05:40:37;;;;;;;24.30;16.08;;;;;;;11.35;100.00;101640.31;4979401;28;20073;-93
2023/05/06 05:43:02;;;;;;;24.63;16.33;;;;;;;11.41;100.00;101642.81;4966766;28;20054;-92
2023/05/06 05:45:27;;;;;;;26.17;15.93;;;;;;;11.48;100.00;101652.22;4967791;28;20058;-93
2023/05/06 05:47:53;;;;;;;24.58;16.40;;;;;;;11.53;100.00;101654.78;4966371;28;20057;-92
2023/05/06 05:50:19;;;;;;;25.60;16.00;;;;;;;11.56;100.00;101660.78;4964472;28;20031;-92
2023/05/06 05:52:44;;;;;;;27.10;17.88;;;;;;;11.62;100.00;101659.81;4963941;28;20055;-92
2023/05/06 05:55:09;;;;;;;26.08;17.88;;;;;;;11.70;100.00;101661.44;4963173;28;20031;-92
2023/05/06 05:57:35;;;;;;;26.08;18.48;;;;;;;11.83;100.00;101656.94;4962848;28;20030;-92
2023/05/06 06:00:01;;;;;;;29.77;21.85;;;;;;;11.96;100.00;101662.78;4964074;28;20031;-93
2023/05/06 06:02:26;;;;;;;32.90;24.58;;;;;;;12.07;100.00;101655.69;4965035;28;20085;-92
2023/05/06 06:04:52;;;;;;;36.10;26.13;;;;;;;12.17;100.00;101644.25;4963802;28;20046;-92
2023/05/06 06:07:17;;;;;;;33.57;25.97;;;;;;;12.26;100.00;101657.09;4966439;28;21132;-93
2023/05/06 06:09:45;;;;;;;38.92;28.95;;;;;;;12.36;100.00;101648.22;4965904;28;20336;-91
2023/05/06 06:12:11;;;;;;;39.17;29.73;;;;;;;12.51;100.00;101658.34;4966398;28;20491;-91
2023/05/06 06:14:36;;;;;;;37.80;29.67;;;;;;;12.76;100.00;101655.28;4967175;28;20037;-93
2023/05/06 06:17:03;;;;;;;38.25;29.08;;;;;;;12.92;100.00;101647.13;4966350;28;20538;-92
2023/05/06 06:19:29;;;;;;;34.28;25.95;;;;;;;13.14;100.00;101650.19;4966835;28;20027;-93
2023/05/06 06:21:54;;;;;;;31.38;24.80;;;;;;;13.22;100.00;101648.28;4967403;28;20236;-92
2023/05/06 06:24:20;;;;;;;29.52;22.02;;;;;;;13.29;100.00;101644.66;4965966;28;20038;-92
2023/05/06 06:26:45;;;;;;;28.63;22.33;;;;;;;13.28;100.00;101642.94;4965411;28;20045;-90
2023/05/06 06:29:11;;;;;;;29.20;20.25;;;;;;;13.35;100.00;101647.13;4964731;28;20030;-92
2023/05/06 06:31:36;;;;;;;26.25;19.08;;;;;;;13.42;100.00;101653.03;4962125;28;21273;-91
2023/05/06 06:34:05;;;;;;;24.67;17.20;;;;;;;13.49;100.00;101653.75;4962634;28;20562;-89
2023/05/06 06:36:31;;;;;;;26.73;18.23;;;;;;;13.56;100.00;101653.59;4963096;28;20392;-91
2023/05/06 06:38:56;;;;;;;25.73;17.60;;;;;;;13.65;100.00;101652.50;4966733;28;20473;-91
2023/05/06 06:41:22;;;;;;;25.98;18.10;;;;;;;13.76;100.00;101653.13;4965433;28;20075;-93
2023/05/06 06:43:47;;;;;;;22.27;16.73;;;;;;;13.80;100.00;101659.97;4966333;28;20034;-92
2023/05/06 06:46:12;;;;;;;21.40;15.82;;;;;;;13.87;100.00;101658.06;4964649;28;20030;-92
2023/05/06 06:48:38;;;;;;;21.42;16.08;;;;;;;13.84;100.00;101653.81;4964049;28;20038;-92
2023/05/06 06:51:03;;;;;;;22.67;16.37;;;;;;;13.88;100.00;101665.00;4966421;28;20950;-92
2023/05/06 06:53:28;;;;;;;22.88;17.55;;;;;;;14.00;100.00;101655.13;4966019;28;20308;-92
2023/05/06 06:55:54;;;;;;;25.35;18.25;;;;;;;14.49;100.00;101656.50;4965259;28;20035;-92
2023/05/06 06:58:19;;;;;;;26.25;18.67;;;;;;;15.19;100.00;101657.97;4965916;28;20100;-92
2023/05/06 07:00:44;;;;;;;23.45;16.70;;;;;;;15.67;100.00;101657.41;4964078;28;20023;-93
2023/05/06 07:03:10;;;;;;;21.75;16.27;;;;;;;16.20;100.00;101655.66;4966351;28;20074;-92
2023/05/06 07:05:35;;;;;;;20.20;15.38;;;;;;;16.57;100.00;101665.72;4965555;28;20030;-92
2023/05/06 07:08:01;;;;;;;21.73;15.55;;;;;;;17.06;100.00;101656.94;4964318;28;20038;-92
2023/05/06 07:10:26;;;;;;;24.50;16.10;;;;;;;17.62;100.00;101670.50;4965660;28;20069;-91
2023/05/06 07:12:59;;;;;;;21.10;14.65;;;;;;;18.26;100.00;101667.00;4966040;28;20022;-92
2023/05/06 07:15:24;;;;;;;22.50;15.35;;;;;;;18.86;97.69;101666.13;4965125;28;20086;-92
2023/05/06 07:17:50;;;;;;;20.27;14.30;;;;;;;19.22;93.57;101664.47;4965866;28;20030;-92
2023/05/06 07:20:15;;;;;;;18.63;13.02;;;;;;;19.42;89.99;101671.41;4966185;28;20157;-92
2023/05/06 07:22:41;;;;;;;17.35;13.35;;;;;;;19.58;91.72;101671.59;4968504;28;20030;-91
2023/05/06 07:25:07;;;;;;;19.23;13.60;;;;;;;19.71;88.95;101673.56;4978542;28;20018;-93
2023/05/06 07:27:32;;;;;;;19.60;14.25;;;;;;;20.11;88.08;101682.97;4977849;28;20042;-93
2023/05/06 07:29:57;;;;;;;18.20;13.27;;;;;;;20.20;87.45;101679.00;4968408;28;20031;-93
2023/05/06 07:32:25;;;;;;;19.77;14.23;;;;;;;20.33;85.83;101680.13;4967649;28;20038;-93
2023/05/06 07:34:51;;;;;;;17.95;12.93;;;;;;;20.65;83.67;101683.75;4965864;28;20110;-92
2023/05/06 07:37:18;;;;;;;18.15;12.93;;;;;;;20.93;81.69;101679.66;4967951;28;20117;-92
2023/05/06 07:39:43;;;;;;;20.55;13.10;;;;;;;21.11;79.69;101681.28;4967114;28;20077;-92
2023/05/06 07:42:11;;;;;;;17.50;12.90;;;;;;;21.10;76.22;101675.16;4966641;28;20476;-92
2023/05/06 07:44:37;;;;;;;17.50;12.40;;;;;;;21.31;78.93;101674.94;4964072;28;20126;-92
2023/05/06 07:47:02;;;;;;;19.58;13.38;;;;;;;21.77;78.05;101689.06;4966037;28;20114;-93
2023/05/06 07:49:30;;;;;;;17.27;13.10;;;;;;;21.59;73.43;101678.59;4966237;28;20031;-92
2023/05/06 07:51:56;;;;;;;19.40;13.82;;;;;;;21.46;75.52;101682.03;4965255;28;20503;-93
2023/05/06 07:54:21;;;;;;;19.70;14.10;;;;;;;21.31;74.15;101682.84;4966520;28;20019;-92
2023/05/06 07:56:46;;;;;;;19.47;14.03;;;;;;;21.34;73.54;101675.66;4965545;28;20167;-93
2023/05/06 07:59:13;;;;;;;20.63;14.43;;;;;;;21.61;74.46;101676.75;4966376;28;20298;-93
2023/05/06 08:01:38;;;;;;;19.35;13.48;;;;;;;21.97;75.33;101676.44;4966616;28;20372;-93
2023/05/06 08:04:04;;;;;;;19.00;12.90;;;;;;;21.95;75.43;101672.19;4967734;28;20109;-93
2023/05/06 08:06:31;;;;;;;21.17;12.70;;;;;;;21.90;74.25;101680.38;4967514;28;20285;-93
2023/05/06 08:08:56;;;;;;;20.10;12.93;;;;;;;22.19;76.35;101686.59;4967571;28;20466;-93
2023/05/06 08:11:21;;;;;;;20.10;13.77;;;;;;;22.61;72.72;101683.19;4965875;28;20487;-93
2023/05/06 08:13:49;;;;;;;19.40;12.98;;;;;;;23.08;73.06;101680.31;4966898;28;20380;-93
2023/05/06 08:16:14;;;;;;;21.27;12.75;;;;;;;23.63;66.74;101687.41;4966014;28;20062;-94
2023/05/06 08:18:40;;;;;;;17.38;12.88;;;;;;;23.86;69.42;101681.47;4964605;28;20023;-93
2023/05/06 08:21:05;;;;;;;21.40;13.98;;;;;;;24.00;67.26;101689.34;4967228;28;20047;-93
2023/05/06 08:23:31;;;;;;;20.45;13.52;;;;;;;24.20;66.26;101682.75;4985769;28;20039;-93
2023/05/06 08:25:57;;;;;;;17.67;12.20;;;;;;;24.64;65.68;101674.41;4970483;28;20034;-93
2023/05/06 08:28:28;;;;;;;19.98;12.82;;;;;;;24.95;63.06;101674.94;4970865;28;20398;-93
2023/05/06 08:30:53;;;;;;;17.95;12.05;;;;;;;25.16;60.11;101673.44;4968466;28;20034;-93
2023/05/06 08:33:18;;;;;;;19.90;12.35;;;;;;;25.65;64.76;101677.88;4971292;28;20037;-93
2023/05/06 08:35:44;;;;;;;17.45;10.43;;;;;;;25.79;60.33;101667.91;4969238;28;20403;-93
2023/05/06 08:38:10;;;;;;;16.88;11.00;;;;;;;25.62;60.24;101676.28;4969811;28;20042;-93
2023/05/06 08:40:41;;;;;;;14.05;10.43;;;;;;;25.51;63.25;101670.88;4971794;28;20023;-93
2023/05/06 08:43:12;;;;;;;15.18;9.68;;;;;;;25.11;63.18;101660.47;4970243;28;20047;-93
2023/05/06 08:45:37;;;;;;;16.50;9.02;;;;;;;24.64;63.40;101669.09;4971065;28;20026;-93
2023/05/06 08:48:03;;;;;;;16.05;9.45;;;;;;;23.89;65.79;101660.06;4969871;28;20035;-93
2023/05/06 08:50:28;;;;;;;13.45;9.27;;;;;;;23.24;67.61;101669.63;4971358;28;20476;-93
2023/05/06 08:52:54;;;;;;;13.60;9.45;;;;;;;22.57;71.39;101665.84;4970831;28;20404;-92
2023/05/06 08:55:25;;;;;;;13.35;8.45;;;;;;;22.10;68.13;101665.19;4971316;28;20022;-93
2023/05/06 08:57:52;;;;;;;13.00;8.95;;;;;;;21.92;70.01;101667.06;4971406;28;20066;-93
2023/05/06 09:00:17;;;;;;;14.80;9.23;;;;;;;21.89;67.43;101661.97;4970284;28;20129;-93
2023/05/06 09:02:43;;;;;;;13.45;9.80;;;;;;;21.81;68.96;101659.78;4970185;28;20419;-93
2023/05/06 09:05:10;;;;;;;15.60;10.32;;;;;;;21.91;68.67;101662.72;4968548;28;20038;-93
2023/05/06 09:07:35;;;;;;;15.18;9.02;;;;;;;22.02;71.94;101657.72;4969075;28;20507;-93
2023/05/06 09:10:05;;;;;;;12.75;7.90;;;;;;;21.95;71.35;101661.63;4970885;28;20038;-92
2023/05/06 09:12:30;;;;;;;15.43;9.20;;;;;;;21.94;72.65;101654.63;4970727;28;20443;-93
2023/05/06 09:14:55;;;;;;;11.40;8.13;;;;;;;21.85;72.94;101656.00;4970542;28;20027;-92
2023/05/06 09:17:26;;;;;;;14.07;8.50;;;;;;;21.81;74.76;101656.28;4985771;28;20309;-93
2023/05/06 09:19:53;;;;;;;10.45;7.50;;;;;;;21.80;68.61;101642.22;4970461;28;20524;-93
2023/05/06 09:22:23;;;;;;;8.82;6.25;;;;;;;21.80;67.95;101644.88;4966674;28;20038;-92
2023/05/06 09:24:55;;;;;;;8.55;5.40;;;;;;;21.81;70.76;101643.94;4968498;28;20041;-93
2023/05/06 09:27:25;;;;;;;8.88;6.38;;;;;;;21.71;67.28;101650.66;4968479;28;20028;-92
2023/05/06 09:30:04;;;;;;;10.30;6.78;;;;;;;21.43;67.67;101648.72;4970014;28;20054;-92
2023/05/06 09:32:31;;;;;;;10.23;7.07;;;;;;;21.32;67.65;101647.66;4969635;28;20495;-93
2023/05/06 09:34:56;;;;;;;9.68;6.90;;;;;;;21.31;70.42;101648.56;4971115;28;20094;-94
2023/05/06 09:37:25;;;;;;;8.82;6.03;;;;;;;21.44;73.33;101650.44;4968784;28;20038;-93
2023/05/06 09:39:53;;;;;;;6.90;4.43;;;;;;;21.57;69.01;101645.31;4970904;28;20035;-93
2023/05/06 09:42:21;;;;;;;6.75;4.40;;;;;;;21.41;64.08;101655.91;4969926;28;20121;-93
2023/05/06 09:44:46;;;;;;;6.13;3.97;;;;;;;21.33;68.38;101642.28;4970059;28;20030;-92
2023/05/06 09:47:13;;;;;;;6.43;4.18;;;;;;;21.28;64.65;101644.34;4967942;28;20093;-93
2023/05/06 09:49:41;;;;;;;6.63;3.85;;;;;;;21.15;67.28;101645.91;4969559;28;20101;-94
2023/05/06 09:52:07;;;;;;;5.82;3.50;;;;;;;21.11;69.07;101641.72;4968904;28;20050;-92
2023/05/06 09:54:32;;;;;;;6.97;4.45;;;;;;;21.02;64.96;101648.34;4968771;28;20042;-93
2023/05/06 09:56:58;;;;;;;5.70;4.22;;;;;;;21.16;67.31;101637.94;4969459;28;20175;-92
2023/05/06 09:59:25;;;;;;;6.97;4.63;;;;;;;21.23;63.78;101638.44;4968982;28;20033;-92
2023/05/06 10:01:51;;;;;;;7.78;4.50;;;;;;;21.27;65.08;101643.50;4965440;28;20132;-92
2023/05/06 10:04:17;;;;;;;7.43;4.10;;;;;;;21.32;69.02;101637.94;4968619;28;20030;-93
2023/05/06 10:06:45;;;;;;;7.47;4.93;;;;;;;21.37;68.21;101642.94;4969086;28;20037;-92
2023/05/06 10:09:12;;;;;;;7.18;4.13;;;;;;;21.33;63.01;101633.53;4969147;28;20811;-93
2023/05/06 10:11:37;;;;;;;6.35;4.30;;;;;;;21.38;66.04;101631.47;4969803;28;20054;-92
2023/05/06 10:14:04;;;;;;;7.05;4.70;;;;;;;21.40;67.35;101634.88;4970464;28;20050;-92
2023/05/06 10:16:30;;;;;;;5.47;4.20;;;;;;;21.58;66.88;101631.19;4963559;28;20443;-93
2023/05/06 10:18:57;;;;;;;6.80;4.20;;;;;;;21.67;66.00;101625.41;4968511;28;20026;-93
2023/05/06 10:21:25;;;;;;;6.72;4.20;;;;;;;21.61;63.35;101623.13;4968761;28;20484;-92
2023/05/06 10:23:55;;;;;;;5.97;4.25;;;;;;;21.67;62.42;101614.84;4966838;28;20039;-93
2023/05/06 10:26:21;;;;;;;8.75;4.03;;;;;;;21.57;63.13;101618.94;4967592;28;20046;-92
2023/05/06 10:28:51;;;;;;;6.55;3.50;;;;;;;21.50;62.14;101597.31;4966633;28;20095;-93
2023/05/06 10:31:18;;;;;;;5.57;3.30;;;;;;;21.64;67.02;101615.00;4969144;28;20058;-94
2023/05/06 10:33:47;;;;;;;7.05;4.13;;;;;;;21.48;61.56;101593.94;4968859;28;20417;-93
2023/05/06 10:36:19;;;;;;;5.97;3.25;;;;;;;21.46;64.37;101614.28;4982390;28;20166;-93
2023/05/06 10:38:48;;;;;;;5.90;3.58;;;;;;;21.37;61.71;101609.50;4967989;28;20110;-86
2023/05/06 10:41:14;;;;;;;5.85;3.45;;;;;;;21.43;66.59;101593.34;4982483;28;20446;-86
2023/05/06 10:43:41;;;;;;;5.63;3.83;;;;;;;21.40;63.34;101603.22;4964969;28;20154;-86
2023/05/06 10:46:12;;;;;;;7.22;4.07;;;;;;;21.34;64.58;101587.75;4967509;28;20034;-87
2023/05/06 10:48:57;;;;;;;7.35;4.60;;;;;;;21.17;62.09;101594.81;4982003;28;20085;-86
2023/05/06 10:51:27;;;;;;;5.95;3.80;;;;;;;21.12;63.40;101582.78;4982130;28;20038;-86
2023/05/06 10:53:55;;;;;;;7.45;4.20;;;;;;;21.17;62.57;101594.81;4965925;28;20039;-86
2023/05/06 10:56:20;;;;;;;6.93;3.70;;;;;;;21.13;66.54;101588.00;4968076;28;20302;-86
2023/05/06 10:58:49;;;;;;;7.40;3.60;;;;;;;21.05;67.56;101579.66;4966505;28;20015;-86
2023/05/06 11:01:15;;;;;;;6.70;3.55;;;;;;;21.27;62.54;101582.81;4981941;28;20035;-86
2023/05/06 11:03:43;;;;;;;5.13;3.00;;;;;;;21.27;65.80;101581.97;4967240;28;20037;-86
2023/05/06 11:06:11;;;;;;;5.05;2.85;;;;;;;21.41;62.73;101595.22;4966062;28;20075;-86